createdAt,value
2019-05-03T00:00:07.667Z,0.30
2019-05-03T00:01:07.307Z,0.63
2019-05-03T00:02:07.380Z,0.19
2019-05-03T00:03:07.347Z,0.29
2019-05-03T00:04:07.641Z,0.63
2019-05-03T00:05:08.443Z,0.08
2019-05-03T00:06:07.337Z,0.79
2019-05-03T00:07:07.298Z,0.18
2019-05-03T00:08:07.731Z,0.00
2019-05-03T00:09:07.701Z,0.02
2019-05-03T00:10:08.414Z,0.07
2019-05-03T00:11:10.395Z,0.04
2019-05-03T00:12:07.390Z,0.10
2019-05-03T00:13:07.330Z,0.00
2019-05-03T00:14:07.717Z,0.00
2019-05-03T00:15:07.374Z,0.00
2019-05-03T00:16:07.663Z,0.00
2019-05-03T00:17:07.953Z,0.00
2019-05-03T00:18:07.681Z,0.00
2019-05-03T00:19:07.641Z,0.00
2019-05-03T00:20:07.389Z,0.00
2019-05-03T00:21:07.349Z,0.00
2019-05-03T00:22:08.015Z,0.00
2019-05-03T00:23:07.633Z,0.00
2019-05-03T00:24:08.457Z,0.00
2019-05-03T00:25:08.460Z,0.00
2019-05-03T00:26:08.109Z,0.00
2019-05-03T00:27:07.691Z,0.00
2019-05-03T00:28:07.343Z,0.00
2019-05-03T00:29:07.430Z,0.00
2019-05-03T00:30:08.523Z,0.25
2019-05-03T00:31:08.021Z,0.72
2019-05-03T00:32:08.007Z,0.01
2019-05-03T00:33:07.392Z,0.00
2019-05-03T00:34:07.640Z,0.00
2019-05-03T00:35:07.755Z,0.00
2019-05-03T00:36:07.440Z,0.09
2019-05-03T00:37:07.355Z,0.02
2019-05-03T00:38:07.325Z,0.00
2019-05-03T00:39:07.438Z,0.24
2019-05-03T00:40:07.369Z,0.03
2019-05-03T00:41:07.643Z,0.21
2019-05-03T00:42:08.475Z,0.44
2019-05-03T00:43:07.988Z,0.00
2019-05-03T00:44:07.686Z,0.30
2019-05-03T00:45:07.797Z,0.19
2019-05-03T00:46:08.077Z,0.00
2019-05-03T00:47:08.083Z,0.00
2019-05-03T00:48:07.618Z,0.00
2019-05-03T00:49:07.631Z,0.00
2019-05-03T00:50:07.351Z,0.00
2019-05-03T00:51:07.487Z,0.00
2019-05-03T00:52:07.878Z,0.00
2019-05-03T00:53:07.970Z,0.00
2019-05-03T00:54:07.433Z,0.00
2019-05-03T00:55:16.138Z,0.00
2019-05-03T00:56:07.388Z,0.00
2019-05-03T00:57:07.775Z,0.00
2019-05-03T00:58:07.419Z,0.00
2019-05-03T00:59:07.707Z,0.07
2019-05-03T01:00:07.459Z,0.44
2019-05-03T01:01:07.402Z,0.31
2019-05-03T01:02:07.396Z,0.43
2019-05-03T01:03:08.460Z,0.00
2019-05-03T01:04:07.407Z,0.18
2019-05-03T01:05:07.386Z,0.00
2019-05-03T01:06:07.757Z,0.00
2019-05-03T01:07:07.642Z,0.02
2019-05-03T01:08:07.373Z,0.06
2019-05-03T01:09:07.772Z,0.00
2019-05-03T01:10:07.410Z,0.52
2019-05-03T01:11:08.144Z,0.26
2019-05-03T01:12:07.483Z,0.00
2019-05-03T01:13:08.600Z,0.00
2019-05-03T01:14:08.423Z,0.00
2019-05-03T01:15:08.222Z,0.00
2019-05-03T01:16:07.880Z,0.00
2019-05-03T01:17:07.702Z,0.00
2019-05-03T01:18:07.432Z,0.00
2019-05-03T01:19:07.431Z,0.00
2019-05-03T01:20:07.486Z,0.00
2019-05-03T01:21:07.778Z,0.00
2019-05-03T01:22:07.748Z,0.00
2019-05-03T01:23:08.089Z,0.00
2019-05-03T01:24:07.348Z,0.00
2019-05-03T01:25:07.446Z,0.00
2019-05-03T01:26:07.436Z,0.05
2019-05-03T01:27:07.406Z,0.00
2019-05-03T01:28:07.744Z,0.00
2019-05-03T01:29:07.392Z,0.00
2019-05-03T01:30:07.694Z,0.00
2019-05-03T01:31:07.476Z,0.00
2019-05-03T01:32:08.156Z,0.07
2019-05-03T01:33:07.888Z,0.00
2019-05-03T01:34:08.108Z,0.00
2019-05-03T01:35:07.410Z,0.05
2019-05-03T01:36:07.574Z,0.00
2019-05-03T01:37:08.510Z,0.00
2019-05-03T01:38:07.394Z,0.00
2019-05-03T01:39:07.409Z,0.00
2019-05-03T01:40:07.770Z,0.00
2019-05-03T01:41:07.528Z,0.00
2019-05-03T01:42:07.386Z,0.03
2019-05-03T01:43:07.790Z,0.08
2019-05-03T01:44:07.752Z,0.00
2019-05-03T01:45:07.764Z,0.00
2019-05-03T01:46:07.462Z,0.03
2019-05-03T01:47:07.476Z,0.05
2019-05-03T01:48:07.403Z,0.00
2019-05-03T01:49:09.216Z,0.02
2019-05-03T01:50:08.366Z,0.00
2019-05-03T01:51:07.732Z,0.83
2019-05-03T01:52:07.820Z,0.00
2019-05-03T01:53:08.383Z,0.00
2019-05-03T01:54:07.407Z,0.00
2019-05-03T01:55:08.017Z,0.00
2019-05-03T01:56:07.480Z,0.00
2019-05-03T01:57:07.862Z,0.00
2019-05-03T01:58:07.490Z,0.00
2019-05-03T01:59:07.442Z,0.00
2019-05-03T02:00:08.782Z,0.00
2019-05-03T02:01:07.531Z,0.00
2019-05-03T02:02:07.788Z,0.00
2019-05-03T02:03:08.518Z,0.00
2019-05-03T02:04:07.792Z,0.00
2019-05-03T02:05:07.446Z,0.00
2019-05-03T02:06:08.473Z,0.00
2019-05-03T02:07:07.381Z,0.00
2019-05-03T02:08:07.443Z,0.00
2019-05-03T02:09:07.765Z,0.06
2019-05-03T02:10:07.424Z,0.01
2019-05-03T02:11:07.580Z,0.00
2019-05-03T02:12:07.439Z,0.25
2019-05-03T02:13:08.038Z,0.00
2019-05-03T02:14:08.450Z,0.00
2019-05-03T02:15:07.460Z,0.00
2019-05-03T02:16:08.464Z,0.20
2019-05-03T02:17:07.857Z,0.38
2019-05-03T02:18:08.151Z,0.46
2019-05-03T02:19:07.938Z,0.10
2019-05-03T02:20:07.910Z,0.00
2019-05-03T02:21:08.089Z,0.00
2019-05-03T02:22:07.430Z,0.02
2019-05-03T02:23:07.822Z,0.31
2019-05-03T02:24:07.825Z,0.00
2019-05-03T02:25:07.432Z,0.00
2019-05-03T02:26:07.488Z,0.00
2019-05-03T02:27:07.525Z,0.37
2019-05-03T02:28:07.761Z,0.01
2019-05-03T02:29:07.837Z,0.00
2019-05-03T02:30:08.056Z,0.00
2019-05-03T02:31:07.965Z,0.00
2019-05-03T02:32:07.546Z,0.09
2019-05-03T02:33:07.792Z,0.00
2019-05-03T02:34:12.587Z,0.18
2019-05-03T02:35:07.510Z,0.12
2019-05-03T02:36:07.526Z,0.00
2019-05-03T02:37:09.111Z,0.00
2019-05-03T02:38:07.529Z,0.00
2019-05-03T02:39:07.808Z,0.00
2019-05-03T02:40:08.175Z,0.00
2019-05-03T02:41:07.396Z,0.00
2019-05-03T02:42:11.713Z,0.00
2019-05-03T02:43:07.480Z,0.00
2019-05-03T02:44:07.510Z,0.00
2019-05-03T02:45:07.664Z,0.00
2019-05-03T02:46:08.197Z,0.00
2019-05-03T02:47:07.952Z,0.00
2019-05-03T02:48:07.542Z,0.00
2019-05-03T02:49:07.787Z,0.00
2019-05-03T02:50:07.519Z,0.00
2019-05-03T02:51:07.599Z,0.00
2019-05-03T02:52:07.534Z,0.00
2019-05-03T02:53:08.464Z,0.00
2019-05-03T02:54:07.506Z,0.09
2019-05-03T02:55:07.460Z,0.07
2019-05-03T02:56:18.191Z,0.07
2019-05-03T02:57:07.550Z,0.10
2019-05-03T02:58:07.535Z,0.00
2019-05-03T02:59:07.864Z,0.00
2019-05-03T03:00:07.495Z,0.00
2019-05-03T03:01:07.473Z,0.00
2019-05-03T03:02:07.570Z,0.00
2019-05-03T03:03:07.853Z,0.12
2019-05-03T03:04:07.494Z,0.00
2019-05-03T03:05:07.464Z,0.25
2019-05-03T03:06:08.273Z,0.17
2019-05-03T03:07:07.518Z,0.00
2019-05-03T03:08:07.448Z,0.00
2019-05-03T03:09:07.525Z,0.00
2019-05-03T03:10:07.501Z,0.00
2019-05-03T03:11:07.458Z,0.00
2019-05-03T03:12:08.253Z,0.00
2019-05-03T03:13:07.486Z,0.00
2019-05-03T03:14:08.093Z,0.00
2019-05-03T03:15:07.889Z,0.00
2019-05-03T03:16:08.234Z,0.00
2019-05-03T03:17:08.081Z,0.02
2019-05-03T03:18:07.589Z,0.03
2019-05-03T03:19:07.587Z,0.00
2019-05-03T03:20:07.879Z,0.00
2019-05-03T03:21:07.560Z,0.00
2019-05-03T03:22:07.853Z,0.00
2019-05-03T03:23:07.529Z,0.00
2019-05-03T03:24:07.885Z,0.00
2019-05-03T03:25:07.633Z,0.00
2019-05-03T03:26:07.844Z,0.00
2019-05-03T03:27:07.429Z,0.00
2019-05-03T03:28:07.858Z,0.00
2019-05-03T03:29:07.502Z,0.00
2019-05-03T03:30:08.254Z,0.00
2019-05-03T03:31:08.721Z,0.00
2019-05-03T03:32:09.209Z,0.42
2019-05-03T03:33:08.997Z,0.10
2019-05-03T03:34:08.722Z,0.00
2019-05-03T03:35:11.559Z,0.00
2019-05-03T03:36:37.708Z,0.05
2019-05-03T03:37:10.348Z,0.00
2019-05-03T03:38:08.647Z,0.00
2019-05-03T03:39:07.469Z,0.00
2019-05-03T03:40:08.589Z,0.00
2019-05-03T03:41:07.494Z,0.00
2019-05-03T03:42:07.510Z,0.00
2019-05-03T03:43:07.973Z,0.00
2019-05-03T03:44:07.772Z,0.00
2019-05-03T03:45:07.517Z,0.00
2019-05-03T03:46:07.528Z,0.00
2019-05-03T03:47:07.861Z,0.00
2019-05-03T03:48:08.115Z,0.00
2019-05-03T03:49:08.286Z,0.00
2019-05-03T03:50:07.514Z,0.00
2019-05-03T03:51:08.458Z,0.09
2019-05-03T03:52:07.909Z,0.03
2019-05-03T03:53:08.878Z,0.00
2019-05-03T03:54:08.013Z,0.00
2019-05-03T03:55:07.495Z,0.00
2019-05-03T03:56:08.578Z,0.00
2019-05-03T03:57:08.310Z,0.00
2019-05-03T03:58:08.030Z,0.00
2019-05-03T03:59:07.539Z,0.00
2019-05-03T04:00:07.850Z,0.00
2019-05-03T04:01:07.895Z,0.00
2019-05-03T04:02:08.227Z,0.00
2019-05-03T04:03:07.529Z,0.00
2019-05-03T04:04:08.621Z,0.00
2019-05-03T04:05:08.085Z,0.00
2019-05-03T04:06:07.833Z,0.00
2019-05-03T04:07:07.923Z,0.00
2019-05-03T04:08:07.586Z,0.00
2019-05-03T04:09:07.519Z,0.00
2019-05-03T04:10:07.577Z,0.00
2019-05-03T04:11:07.584Z,0.00
2019-05-03T04:12:07.540Z,0.00
2019-05-03T04:13:07.901Z,0.00
2019-05-03T04:14:07.569Z,0.00
2019-05-03T04:15:07.853Z,0.00
2019-05-03T04:16:08.318Z,0.00
2019-05-03T04:17:07.577Z,0.00
2019-05-03T04:18:08.515Z,0.00
2019-05-03T04:19:07.904Z,0.00
2019-05-03T04:20:07.665Z,0.00
2019-05-03T04:21:07.564Z,0.00
2019-05-03T04:22:07.623Z,0.00
2019-05-03T04:23:08.222Z,0.00
2019-05-03T04:24:07.559Z,0.00
2019-05-03T04:25:07.659Z,0.00
2019-05-03T04:26:08.413Z,0.00
2019-05-03T04:27:18.043Z,0.00
2019-05-03T04:28:07.683Z,0.00
2019-05-03T04:29:08.204Z,0.00
2019-05-03T04:30:08.182Z,0.00
2019-05-03T04:31:08.049Z,0.00
2019-05-03T04:32:08.193Z,0.00
2019-05-03T04:33:07.598Z,0.07
2019-05-03T04:34:08.345Z,0.00
2019-05-03T04:35:07.568Z,0.20
2019-05-03T04:36:07.925Z,0.11
2019-05-03T04:37:08.734Z,0.02
2019-05-03T04:38:08.790Z,0.00
2019-05-03T04:39:07.681Z,0.00
2019-05-03T04:40:08.374Z,0.00
2019-05-03T04:41:07.917Z,0.18
2019-05-03T04:42:07.938Z,0.01
2019-05-03T04:43:09.603Z,0.00
2019-05-03T04:44:07.634Z,0.00
2019-05-03T04:45:08.728Z,0.08
2019-05-03T04:46:08.470Z,0.18
2019-05-03T04:47:07.596Z,0.00
2019-05-03T04:48:07.903Z,0.00
2019-05-03T04:49:07.607Z,0.00
2019-05-03T04:50:07.606Z,0.00
2019-05-03T04:51:07.906Z,0.00
2019-05-03T04:52:08.162Z,0.00
2019-05-03T04:53:07.642Z,0.00
2019-05-03T04:54:07.632Z,0.00
2019-05-03T04:55:08.602Z,0.26
2019-05-03T04:56:07.619Z,0.05
2019-05-03T04:57:07.950Z,0.00
2019-05-03T04:58:08.280Z,0.00
2019-05-03T04:59:07.634Z,0.00
2019-05-03T05:00:11.311Z,0.00
2019-05-03T05:01:07.565Z,0.04
2019-05-03T05:02:10.427Z,0.15
2019-05-03T05:03:07.922Z,0.10
2019-05-03T05:04:08.426Z,0.41
2019-05-03T05:05:08.654Z,0.05
2019-05-03T05:06:07.590Z,0.27
2019-05-03T05:07:07.567Z,0.08
2019-05-03T05:08:07.611Z,0.00
2019-05-03T05:09:07.928Z,0.08
2019-05-03T05:10:07.747Z,0.03
2019-05-03T05:11:10.350Z,0.00
2019-05-03T05:12:07.609Z,0.00
2019-05-03T05:13:08.280Z,0.00
2019-05-03T05:14:07.981Z,0.19
2019-05-03T05:15:07.663Z,0.02
2019-05-03T05:16:07.564Z,0.03
2019-05-03T05:17:07.517Z,0.29
2019-05-03T05:18:07.603Z,0.31
2019-05-03T05:19:07.837Z,0.03
2019-05-03T05:20:08.410Z,0.21
2019-05-03T05:21:07.586Z,0.00
2019-05-03T05:22:07.934Z,0.00
2019-05-03T05:23:07.889Z,0.00
2019-05-03T05:24:07.942Z,0.00
2019-05-03T05:25:11.729Z,0.00
2019-05-03T05:26:07.582Z,0.04
2019-05-03T05:27:07.622Z,0.20
2019-05-03T05:28:08.532Z,0.02
2019-05-03T05:29:08.370Z,0.07
2019-05-03T05:30:07.617Z,0.02
2019-05-03T05:31:07.626Z,0.25
2019-05-03T05:32:07.669Z,0.23
2019-05-03T05:33:07.634Z,0.03
2019-05-03T05:34:08.875Z,0.01
2019-05-03T05:35:07.896Z,0.24
2019-05-03T05:36:08.184Z,0.34
2019-05-03T05:37:07.923Z,0.00
2019-05-03T05:38:07.570Z,0.00
2019-05-03T05:39:07.648Z,0.15
2019-05-03T05:40:07.544Z,0.00
2019-05-03T05:41:07.899Z,0.00
2019-05-03T05:42:07.976Z,0.31
2019-05-03T05:43:07.660Z,0.13
2019-05-03T05:44:07.629Z,0.10
2019-05-03T05:45:07.650Z,0.06
2019-05-03T05:46:09.167Z,0.13
2019-05-03T05:47:08.837Z,0.00
2019-05-03T05:48:07.654Z,0.00
2019-05-03T05:49:07.615Z,0.00
2019-05-03T05:50:08.242Z,0.17
2019-05-03T05:51:07.885Z,0.22
2019-05-03T05:52:07.656Z,0.00
2019-05-03T05:53:07.785Z,0.00
2019-05-03T05:54:07.581Z,0.00
2019-05-03T05:55:08.687Z,0.00
2019-05-03T05:56:07.972Z,0.11
2019-05-03T05:57:08.522Z,0.16
2019-05-03T05:58:08.787Z,0.04
2019-05-03T05:59:07.570Z,0.00
2019-05-03T06:00:07.675Z,0.00
2019-05-03T06:01:07.591Z,0.00
2019-05-03T06:02:07.591Z,0.00
2019-05-03T06:03:08.081Z,0.00
2019-05-03T06:04:10.016Z,0.05
2019-05-03T06:05:07.705Z,0.00
2019-05-03T06:06:08.387Z,0.26
2019-05-03T06:07:08.401Z,0.12
2019-05-03T06:08:08.899Z,0.07
2019-05-03T06:09:07.678Z,0.00
2019-05-03T06:10:07.663Z,0.00
2019-05-03T06:11:07.616Z,0.00
2019-05-03T06:12:07.587Z,0.00
2019-05-03T06:13:07.702Z,0.00
2019-05-03T06:14:07.947Z,0.00
2019-05-03T06:15:07.962Z,0.00
2019-05-03T06:16:07.981Z,0.05
2019-05-03T06:17:07.721Z,0.22
2019-05-03T06:18:07.648Z,0.05
2019-05-03T06:19:08.257Z,0.00
2019-05-03T06:20:07.818Z,0.00
2019-05-03T06:21:07.641Z,1.19
2019-05-03T06:22:07.641Z,0.27
2019-05-03T06:23:08.399Z,0.13
2019-05-03T06:24:07.951Z,0.33
2019-05-03T06:25:07.672Z,0.11
2019-05-03T06:26:08.139Z,0.10
2019-05-03T06:27:08.763Z,0.05
2019-05-03T06:28:17.725Z,0.00
2019-05-03T06:29:07.640Z,0.26
2019-05-03T06:30:07.735Z,0.00
2019-05-03T06:31:08.013Z,0.40
2019-05-03T06:32:08.666Z,0.00
2019-05-03T06:33:07.665Z,0.00
2019-05-03T06:34:08.111Z,0.04
2019-05-03T06:35:07.664Z,0.01
2019-05-03T06:36:08.083Z,0.06
2019-05-03T06:37:07.687Z,0.00
2019-05-03T06:38:07.688Z,0.00
2019-05-03T06:39:08.318Z,0.00
2019-05-03T06:40:07.913Z,0.79
2019-05-03T06:41:07.691Z,0.80
2019-05-03T06:42:10.024Z,0.41
2019-05-03T06:43:11.144Z,1.01
2019-05-03T06:44:07.878Z,1.30
2019-05-03T06:45:11.383Z,0.49
2019-05-03T06:46:07.737Z,0.43
2019-05-03T06:47:10.463Z,1.01
2019-05-03T06:48:07.608Z,0.72
2019-05-03T06:49:10.038Z,1.22
2019-05-03T06:50:07.663Z,0.73
2019-05-03T06:51:10.468Z,0.47
2019-05-03T06:52:07.716Z,1.33
2019-05-03T06:53:12.838Z,0.22
2019-05-03T06:54:07.883Z,0.24
2019-05-03T06:55:10.529Z,0.76
2019-05-03T06:56:08.600Z,1.20
2019-05-03T06:57:09.469Z,0.99
2019-05-03T06:58:08.027Z,0.90
2019-05-03T06:59:08.114Z,0.56
2019-05-03T07:00:08.422Z,1.33
2019-05-03T07:01:11.246Z,0.99
2019-05-03T07:02:08.042Z,0.82
2019-05-03T07:03:08.010Z,0.70
2019-05-03T07:04:08.064Z,0.26
2019-05-03T07:05:07.710Z,0.26
2019-05-03T07:06:08.870Z,0.25
2019-05-03T07:07:07.954Z,0.49
2019-05-03T07:08:07.711Z,0.84
2019-05-03T07:09:07.811Z,0.74
2019-05-03T07:10:08.406Z,1.39
2019-05-03T07:11:08.032Z,0.76
2019-05-03T07:12:08.122Z,0.92
2019-05-03T07:13:08.988Z,0.78
2019-05-03T07:14:07.738Z,0.81
2019-05-03T07:15:07.694Z,0.49
2019-05-03T07:16:07.630Z,0.59
2019-05-03T07:17:07.695Z,0.34
2019-05-03T07:18:08.016Z,0.58
2019-05-03T07:19:07.738Z,0.90
2019-05-03T07:20:08.152Z,1.04
2019-05-03T07:21:08.034Z,1.00
2019-05-03T07:22:07.670Z,0.64
2019-05-03T07:23:07.737Z,1.21
2019-05-03T07:24:07.698Z,1.21
2019-05-03T07:25:08.008Z,1.02
2019-05-03T07:26:07.752Z,0.74
2019-05-03T07:27:08.027Z,0.45
2019-05-03T07:28:07.786Z,1.31
2019-05-03T07:29:08.770Z,1.50
2019-05-03T07:30:07.878Z,0.47
2019-05-03T07:31:08.010Z,0.70
2019-05-03T07:32:08.167Z,0.08
2019-05-03T07:33:08.050Z,0.35
2019-05-03T07:34:08.016Z,0.67
2019-05-03T07:35:07.740Z,0.69
2019-05-03T07:36:07.710Z,0.53
2019-05-03T07:37:08.611Z,0.39
2019-05-03T07:38:08.083Z,0.28
2019-05-03T07:39:08.168Z,0.52
2019-05-03T07:40:07.664Z,1.13
2019-05-03T07:41:08.094Z,0.61
2019-05-03T07:42:07.762Z,0.36
2019-05-03T07:43:07.699Z,1.04
2019-05-03T07:44:07.778Z,0.84
2019-05-03T07:45:07.702Z,0.61
2019-05-03T07:46:09.048Z,0.11
2019-05-03T07:47:07.936Z,0.38
2019-05-03T07:48:07.709Z,0.99
2019-05-03T07:49:07.716Z,2.27
2019-05-03T07:50:07.794Z,0.63
2019-05-03T07:51:08.058Z,0.34
2019-05-03T07:52:08.429Z,0.84
2019-05-03T07:53:08.817Z,1.04
2019-05-03T07:54:07.717Z,0.97
2019-05-03T07:55:08.039Z,1.41
2019-05-03T07:56:08.840Z,0.84
2019-05-03T07:57:08.167Z,1.69
2019-05-03T07:58:07.722Z,0.82
2019-05-03T07:59:07.766Z,1.12
2019-05-03T08:00:07.730Z,0.89
2019-05-03T08:01:10.000Z,0.66
2019-05-03T08:02:07.827Z,0.72
2019-05-03T08:03:07.761Z,1.29
2019-05-03T08:04:08.438Z,0.06
2019-05-03T08:05:07.815Z,1.19
2019-05-03T08:06:08.113Z,1.44
2019-05-03T08:07:19.957Z,1.04
2019-05-03T08:08:07.719Z,0.83
2019-05-03T08:09:08.540Z,0.63
2019-05-03T08:10:08.055Z,1.07
2019-05-03T08:11:08.126Z,1.11
2019-05-03T08:12:07.832Z,0.52
2019-05-03T08:13:07.697Z,1.25
2019-05-03T08:14:08.051Z,0.91
2019-05-03T08:15:08.479Z,0.70
2019-05-03T08:16:08.365Z,0.47
2019-05-03T08:17:07.847Z,0.18
2019-05-03T08:18:07.801Z,0.58
2019-05-03T08:19:08.079Z,0.55
2019-05-03T08:20:08.045Z,0.05
2019-05-03T08:21:07.759Z,2.00
2019-05-03T08:22:07.747Z,0.96
2019-05-03T08:23:07.963Z,1.21
2019-05-03T08:24:07.766Z,0.80
2019-05-03T08:25:08.372Z,0.87
2019-05-03T08:26:07.724Z,0.96
2019-05-03T08:27:08.552Z,1.21
2019-05-03T08:28:09.014Z,0.76
2019-05-03T08:29:16.017Z,0.44
2019-05-03T08:30:07.977Z,0.68
2019-05-03T08:31:07.749Z,0.57
2019-05-03T08:32:08.066Z,0.59
2019-05-03T08:33:07.827Z,0.63
2019-05-03T08:34:08.467Z,0.05
2019-05-03T08:35:08.620Z,0.27
2019-05-03T08:36:07.787Z,0.62
2019-05-03T08:37:08.058Z,0.86
2019-05-03T08:38:08.164Z,0.95
2019-05-03T08:39:08.142Z,0.81
2019-05-03T08:40:08.107Z,0.27
2019-05-03T08:41:07.749Z,0.51
2019-05-03T08:42:08.660Z,2.31
2019-05-03T08:43:08.395Z,1.38
2019-05-03T08:44:08.233Z,0.73
2019-05-03T08:45:08.078Z,1.37
2019-05-03T08:46:08.135Z,1.12
2019-05-03T08:47:08.618Z,0.59
2019-05-03T08:48:08.135Z,0.91
2019-05-03T08:49:08.142Z,1.27
2019-05-03T08:50:07.733Z,1.72
2019-05-03T08:51:08.537Z,1.87
2019-05-03T08:52:07.809Z,1.30
2019-05-03T08:53:08.183Z,1.15
2019-05-03T08:54:08.831Z,1.47
2019-05-03T08:55:08.131Z,0.47
2019-05-03T08:56:08.709Z,1.14
2019-05-03T08:57:07.949Z,0.86
2019-05-03T08:58:09.070Z,2.04
2019-05-03T08:59:07.772Z,1.11
2019-05-03T09:00:08.180Z,0.92
2019-05-03T09:01:08.145Z,2.06
2019-05-03T09:02:13.846Z,1.04
2019-05-03T09:03:07.844Z,0.33
2019-05-03T09:04:07.858Z,0.59
2019-05-03T09:05:08.392Z,0.87
2019-05-03T09:06:07.855Z,0.63
2019-05-03T09:07:07.828Z,1.15
2019-05-03T09:08:07.775Z,1.35
2019-05-03T09:09:08.398Z,0.54
2019-05-03T09:10:12.301Z,0.57
2019-05-03T09:11:07.797Z,1.45
2019-05-03T09:12:08.104Z,1.51
2019-05-03T09:13:08.275Z,1.05
2019-05-03T09:14:07.810Z,0.64
2019-05-03T09:15:07.850Z,1.37
2019-05-03T09:16:11.148Z,0.83
2019-05-03T09:17:07.846Z,0.16
2019-05-03T09:18:07.972Z,0.41
2019-05-03T09:19:07.831Z,0.83
2019-05-03T09:20:08.138Z,0.59
2019-05-03T09:21:07.764Z,0.90
2019-05-03T09:22:08.222Z,1.29
2019-05-03T09:23:08.157Z,0.84
2019-05-03T09:24:07.812Z,1.16
2019-05-03T09:25:07.878Z,0.87
2019-05-03T09:26:08.138Z,0.33
2019-05-03T09:27:08.208Z,2.05
2019-05-03T09:28:08.172Z,0.84
2019-05-03T09:29:07.833Z,0.89
2019-05-03T09:30:08.475Z,1.02
2019-05-03T09:31:08.920Z,1.09
2019-05-03T09:32:08.416Z,0.84
2019-05-03T09:33:09.191Z,0.22
2019-05-03T09:34:08.381Z,1.51
2019-05-03T09:35:07.803Z,1.08
2019-05-03T09:36:08.740Z,1.45
2019-05-03T09:37:07.877Z,1.12
2019-05-03T09:38:08.170Z,1.47
2019-05-03T09:39:07.840Z,1.44
2019-05-03T09:40:07.898Z,0.78
2019-05-03T09:41:07.874Z,1.42
2019-05-03T09:42:08.417Z,1.11
2019-05-03T09:43:08.218Z,0.78
2019-05-03T09:44:07.836Z,1.55
2019-05-03T09:45:07.786Z,1.40
2019-05-03T09:46:07.918Z,1.25
2019-05-03T09:47:07.991Z,2.13
2019-05-03T09:48:08.151Z,1.17
2019-05-03T09:49:13.213Z,1.39
2019-05-03T09:50:07.830Z,0.95
2019-05-03T09:51:08.548Z,1.16
2019-05-03T09:52:08.417Z,1.15
2019-05-03T09:53:09.076Z,1.34
2019-05-03T09:54:08.198Z,1.59
2019-05-03T09:55:08.224Z,0.73
2019-05-03T09:56:07.867Z,1.05
2019-05-03T09:57:07.863Z,2.09
2019-05-03T09:58:08.000Z,1.10
2019-05-03T09:59:07.841Z,1.28
2019-05-03T10:00:09.088Z,1.43
2019-05-03T10:01:08.685Z,2.07
2019-05-03T10:02:08.199Z,1.46
2019-05-03T10:03:08.023Z,1.93
2019-05-03T10:04:08.230Z,1.13
2019-05-03T10:05:07.854Z,1.63
2019-05-03T10:06:08.367Z,1.11
2019-05-03T10:07:08.258Z,0.31
2019-05-03T10:08:08.503Z,0.53
2019-05-03T10:09:09.004Z,1.54
2019-05-03T10:10:07.933Z,0.98
2019-05-03T10:11:08.222Z,0.95
2019-05-03T10:12:08.207Z,1.33
2019-05-03T10:13:14.190Z,1.06
2019-05-03T10:14:08.180Z,0.43
2019-05-03T10:15:08.425Z,1.40
2019-05-03T10:16:08.893Z,1.02
2019-05-03T10:17:08.035Z,0.98
2019-05-03T10:18:10.800Z,0.90
2019-05-03T10:19:08.170Z,1.45
2019-05-03T10:20:08.630Z,0.18
2019-05-03T10:21:08.669Z,0.21
2019-05-03T10:22:08.594Z,0.18
2019-05-03T10:23:08.231Z,1.24
2019-05-03T10:24:08.806Z,1.20
2019-05-03T10:25:07.834Z,0.95
2019-05-03T10:26:08.590Z,0.58
2019-05-03T10:27:07.917Z,0.72
2019-05-03T10:28:08.262Z,1.17
2019-05-03T10:29:07.905Z,1.38
2019-05-03T10:30:12.512Z,1.20
2019-05-03T10:31:08.076Z,1.56
2019-05-03T10:32:07.961Z,1.68
2019-05-03T10:33:07.862Z,1.04
2019-05-03T10:34:08.575Z,1.14
2019-05-03T10:35:08.731Z,0.85
2019-05-03T10:36:08.933Z,0.84
2019-05-03T10:37:08.511Z,1.02
2019-05-03T10:38:08.262Z,0.63
2019-05-03T10:39:07.865Z,0.88
2019-05-03T10:40:08.193Z,0.24
2019-05-03T10:41:08.623Z,0.65
2019-05-03T10:42:07.904Z,1.61
2019-05-03T10:43:07.853Z,1.56
2019-05-03T10:44:08.979Z,2.74
2019-05-03T10:45:07.893Z,1.03
2019-05-03T10:46:08.487Z,0.80
2019-05-03T10:47:08.282Z,1.61
2019-05-03T10:48:07.916Z,1.11
2019-05-03T10:49:08.229Z,1.73
2019-05-03T10:50:07.975Z,1.20
2019-05-03T10:51:08.229Z,2.39
2019-05-03T10:52:08.202Z,1.46
2019-05-03T10:53:08.664Z,1.24
2019-05-03T10:54:07.906Z,1.11
2019-05-03T10:55:08.255Z,1.09
2019-05-03T10:56:07.938Z,1.26
2019-05-03T10:57:07.939Z,1.32
2019-05-03T10:58:08.238Z,0.73
2019-05-03T10:59:07.960Z,1.30
2019-05-03T11:00:08.256Z,1.91
2019-05-03T11:01:08.231Z,1.27
2019-05-03T11:02:08.950Z,1.30
2019-05-03T11:03:08.261Z,1.04
2019-05-03T11:04:08.233Z,1.86
2019-05-03T11:05:08.653Z,0.74
2019-05-03T11:06:07.903Z,1.06
2019-05-03T11:07:07.939Z,0.81
2019-05-03T11:08:07.961Z,0.95
2019-05-03T11:09:08.110Z,0.68
2019-05-03T11:10:08.616Z,1.18
2019-05-03T11:11:08.063Z,2.29
2019-05-03T11:12:07.957Z,1.87
2019-05-03T11:13:08.649Z,2.21
2019-05-03T11:14:07.974Z,1.54
2019-05-03T11:15:07.986Z,0.70
2019-05-03T11:16:08.234Z,1.12
2019-05-03T11:17:08.062Z,1.77
2019-05-03T11:18:08.284Z,1.84
2019-05-03T11:19:08.337Z,1.92
2019-05-03T11:20:07.971Z,1.80
2019-05-03T11:21:07.998Z,0.89
2019-05-03T11:22:08.063Z,1.46
2019-05-03T11:23:09.040Z,1.13
2019-05-03T11:24:08.198Z,1.41
2019-05-03T11:25:07.901Z,1.37
2019-05-03T11:26:07.995Z,0.48
2019-05-03T11:27:08.398Z,0.76
2019-05-03T11:28:07.930Z,1.20
2019-05-03T11:29:07.991Z,1.10
2019-05-03T11:30:09.690Z,1.34
2019-05-03T11:31:08.264Z,0.22
2019-05-03T11:32:10.255Z,0.97
2019-05-03T11:33:08.321Z,1.76
2019-05-03T11:34:07.924Z,1.97
2019-05-03T11:35:07.950Z,2.52
2019-05-03T11:36:07.959Z,1.52
2019-05-03T11:37:08.580Z,1.37
2019-05-03T11:38:08.225Z,0.90
2019-05-03T11:39:08.338Z,1.08
2019-05-03T11:40:07.934Z,1.16
2019-05-03T11:41:07.904Z,0.76
2019-05-03T11:42:08.301Z,1.56
2019-05-03T11:43:07.946Z,1.45
2019-05-03T11:44:07.932Z,2.06
2019-05-03T11:45:08.124Z,2.03
2019-05-03T11:46:07.952Z,5.30
2019-05-03T11:47:07.950Z,3.37
2019-05-03T11:48:07.989Z,2.51
2019-05-03T11:49:08.702Z,3.31
2019-05-03T11:50:07.938Z,1.89
2019-05-03T11:51:08.343Z,2.74
2019-05-03T11:52:08.415Z,2.22
2019-05-03T11:53:08.156Z,2.02
2019-05-03T11:54:07.986Z,2.17
2019-05-03T11:55:11.553Z,2.61
2019-05-03T11:56:08.264Z,1.97
2019-05-03T11:57:09.068Z,2.28
2019-05-03T11:58:08.302Z,1.68
2019-05-03T11:59:08.064Z,1.21
2019-05-03T12:00:08.446Z,2.16
2019-05-03T12:01:15.995Z,1.13
2019-05-03T12:02:08.476Z,2.07
2019-05-03T12:03:08.342Z,2.01
2019-05-03T12:04:07.990Z,0.97
2019-05-03T12:05:08.296Z,0.78
2019-05-03T12:06:08.834Z,1.30
2019-05-03T12:07:07.988Z,1.04
2019-05-03T12:08:08.414Z,1.51
2019-05-03T12:09:08.050Z,1.43
2019-05-03T12:10:15.205Z,1.91
2019-05-03T12:11:07.956Z,0.84
2019-05-03T12:12:08.036Z,1.49
2019-05-03T12:13:08.040Z,1.31
2019-05-03T12:14:08.311Z,0.59
2019-05-03T12:15:08.370Z,0.83
2019-05-03T12:16:18.040Z,1.21
2019-05-03T12:17:17.911Z,1.92
2019-05-03T12:18:08.605Z,1.65
2019-05-03T12:19:16.919Z,1.16
2019-05-03T12:20:09.196Z,1.07
2019-05-03T12:21:09.704Z,0.59
2019-05-03T12:22:08.613Z,1.14
2019-05-03T12:23:08.548Z,1.24
2019-05-03T12:24:08.561Z,1.03
2019-05-03T12:25:10.498Z,1.49
2019-05-03T12:26:12.632Z,1.32
2019-05-03T12:27:08.772Z,1.20
2019-05-03T12:28:08.116Z,1.15
2019-05-03T12:29:07.993Z,1.33
2019-05-03T12:30:08.054Z,1.51
2019-05-03T12:31:07.999Z,0.88
2019-05-03T12:32:07.993Z,0.76
2019-05-03T12:33:08.399Z,0.87
2019-05-03T12:34:08.375Z,0.72
2019-05-03T12:35:09.054Z,0.97
2019-05-03T12:36:08.084Z,0.94
2019-05-03T12:37:08.966Z,1.25
2019-05-03T12:38:08.044Z,2.24
2019-05-03T12:39:23.327Z,1.28
2019-05-03T12:40:08.037Z,0.92
2019-05-03T12:41:08.210Z,0.65
2019-05-03T12:42:08.517Z,1.08
2019-05-03T12:43:08.382Z,0.88
2019-05-03T12:44:09.095Z,1.94
2019-05-03T12:45:08.459Z,1.34
2019-05-03T12:46:08.167Z,1.68
2019-05-03T12:47:08.233Z,1.04
2019-05-03T12:48:08.413Z,0.45
2019-05-03T12:49:08.185Z,1.51
2019-05-03T12:50:08.031Z,0.99
2019-05-03T12:51:11.068Z,1.64
2019-05-03T12:52:10.556Z,0.93
2019-05-03T12:53:08.681Z,1.25
2019-05-03T12:54:07.986Z,1.11
2019-05-03T12:55:09.107Z,1.35
2019-05-03T12:56:12.310Z,0.90
2019-05-03T12:57:08.089Z,0.68
2019-05-03T12:58:09.222Z,0.58
2019-05-03T12:59:08.137Z,0.96
2019-05-03T13:00:08.013Z,2.08
2019-05-03T13:01:08.408Z,1.12
2019-05-03T13:02:08.363Z,1.43
2019-05-03T13:03:08.669Z,1.20
2019-05-03T13:04:09.159Z,0.56
2019-05-03T13:05:08.009Z,1.58
2019-05-03T13:06:08.773Z,1.37
2019-05-03T13:07:08.078Z,1.08
2019-05-03T13:08:08.721Z,1.29
2019-05-03T13:09:08.353Z,1.29
2019-05-03T13:10:08.125Z,1.50
2019-05-03T13:11:08.425Z,0.83
2019-05-03T13:12:08.044Z,1.19
2019-05-03T13:13:08.627Z,1.18
2019-05-03T13:14:08.761Z,1.52
2019-05-03T13:15:08.487Z,0.95
2019-05-03T13:16:08.732Z,0.92
2019-05-03T13:17:11.048Z,0.99
2019-05-03T13:18:08.169Z,0.92